createdAt,value
2022-12-23T00:00:49.785Z,4
2022-12-23T00:01:49.934Z,4
2022-12-23T00:02:49.959Z,4
2022-12-23T00:03:49.924Z,4
2022-12-23T00:04:49.795Z,4
2022-12-23T00:05:49.787Z,4
2022-12-23T00:06:49.777Z,4
2022-12-23T00:07:49.783Z,4
2022-12-23T00:08:49.774Z,4
2022-12-23T00:09:49.780Z,3
2022-12-23T00:10:49.788Z,4
2022-12-23T00:11:49.790Z,4
2022-12-23T00:12:49.788Z,3
2022-12-23T00:14:49.800Z,4
2022-12-23T00:15:49.774Z,4
2022-12-23T00:16:49.956Z,4
2022-12-23T00:17:49.783Z,4
2022-12-23T00:18:49.793Z,4
2022-12-23T00:19:49.827Z,3
2022-12-23T00:20:49.778Z,4
2022-12-23T00:21:49.804Z,4
2022-12-23T00:22:49.804Z,4
2022-12-23T00:24:49.781Z,4
2022-12-23T00:25:49.770Z,4
2022-12-23T00:26:49.827Z,4
2022-12-23T00:27:49.786Z,3
2022-12-23T00:28:49.787Z,4
2022-12-23T00:29:49.787Z,4
2022-12-23T00:30:49.782Z,4
2022-12-23T00:31:49.861Z,4
2022-12-23T00:32:49.780Z,4
2022-12-23T00:33:49.833Z,5
2022-12-23T00:35:49.844Z,4
2022-12-23T00:36:49.788Z,4
2022-12-23T00:37:49.792Z,4
2022-12-23T00:38:49.786Z,4
2022-12-23T00:39:54.756Z,4
2022-12-23T00:40:49.780Z,4
2022-12-23T00:41:49.851Z,3
2022-12-23T00:42:49.795Z,4
2022-12-23T00:43:49.777Z,3
2022-12-23T00:45:49.887Z,3
2022-12-23T00:46:49.777Z,4
2022-12-23T00:47:49.809Z,4
2022-12-23T00:48:49.783Z,4
2022-12-23T00:49:49.785Z,4
2022-12-23T00:50:49.787Z,4
2022-12-23T00:51:49.783Z,4
2022-12-23T00:52:49.792Z,4
2022-12-23T00:53:49.781Z,4
2022-12-23T00:54:49.781Z,4
2022-12-23T00:55:49.776Z,4
2022-12-23T00:56:49.787Z,4
2022-12-23T00:57:49.877Z,4
2022-12-23T00:58:49.784Z,4
2022-12-23T00:59:49.778Z,4
2022-12-23T01:00:49.862Z,4
2022-12-23T01:01:50.051Z,4
2022-12-23T01:02:49.927Z,4
2022-12-23T01:03:49.779Z,4
2022-12-23T01:05:49.795Z,4
2022-12-23T01:06:49.979Z,5
2022-12-23T01:07:49.792Z,4
2022-12-23T01:08:49.805Z,5
2022-12-23T01:09:49.790Z,5
2022-12-23T01:10:49.789Z,4
2022-12-23T01:11:49.793Z,4
2022-12-23T01:12:49.795Z,4
2022-12-23T01:13:49.783Z,5
2022-12-23T01:14:49.783Z,4
2022-12-23T01:15:49.785Z,5
2022-12-23T01:16:49.899Z,5
2022-12-23T01:17:49.784Z,5
2022-12-23T01:18:49.820Z,5
2022-12-23T01:19:49.793Z,5
2022-12-23T01:20:49.790Z,5
2022-12-23T01:22:49.794Z,5
2022-12-23T01:23:49.784Z,6
2022-12-23T01:24:49.798Z,6
2022-12-23T01:25:49.806Z,5
2022-12-23T01:26:49.791Z,6
2022-12-23T01:28:49.851Z,6
2022-12-23T01:29:49.786Z,6
2022-12-23T01:30:49.799Z,6
2022-12-23T01:31:49.847Z,6
2022-12-23T01:32:49.784Z,6
2022-12-23T01:33:49.788Z,6
2022-12-23T01:34:49.788Z,7
2022-12-23T01:35:49.793Z,7
2022-12-23T01:36:49.788Z,7
2022-12-23T01:37:49.803Z,6
2022-12-23T01:38:49.785Z,6
2022-12-23T01:39:49.789Z,7
2022-12-23T01:40:49.994Z,7
2022-12-23T01:41:49.801Z,7
2022-12-23T01:42:49.813Z,7
2022-12-23T01:43:49.799Z,7
2022-12-23T01:44:49.796Z,7
2022-12-23T01:45:49.893Z,7
2022-12-23T01:48:49.883Z,7
2022-12-23T01:49:49.804Z,8
2022-12-23T01:50:49.786Z,7
2022-12-23T01:51:49.803Z,7
2022-12-23T01:52:49.785Z,7
2022-12-23T01:53:49.800Z,7
2022-12-23T01:54:49.827Z,8
2022-12-23T01:55:49.804Z,8
2022-12-23T01:56:49.789Z,8
2022-12-23T01:57:49.795Z,7
2022-12-23T01:58:49.801Z,8
2022-12-23T01:59:49.802Z,8
2022-12-23T02:00:49.867Z,8
2022-12-23T02:01:49.938Z,7
2022-12-23T02:02:49.896Z,8
2022-12-23T02:03:49.790Z,8
2022-12-23T02:04:49.814Z,7
2022-12-23T02:05:49.825Z,7
2022-12-23T02:06:49.824Z,7
2022-12-23T02:08:49.849Z,8
2022-12-23T02:09:49.811Z,8
2022-12-23T02:10:49.787Z,8
2022-12-23T02:11:49.797Z,9
2022-12-23T02:12:49.785Z,8
2022-12-23T02:13:49.801Z,9
2022-12-23T02:14:49.965Z,8
2022-12-23T02:15:49.795Z,9
2022-12-23T02:16:49.844Z,9
2022-12-23T02:17:49.786Z,8
2022-12-23T02:18:49.809Z,8
2022-12-23T02:19:49.791Z,8
2022-12-23T02:20:49.787Z,8
2022-12-23T02:21:49.787Z,8
2022-12-23T02:22:49.784Z,8
2022-12-23T02:23:49.792Z,9
2022-12-23T02:24:49.785Z,9
2022-12-23T02:25:49.797Z,8
2022-12-23T02:26:49.788Z,9
2022-12-23T02:27:49.784Z,9
2022-12-23T02:29:49.784Z,9
2022-12-23T02:30:49.827Z,9
2022-12-23T02:31:49.785Z,9
2022-12-23T02:32:49.821Z,9
2022-12-23T02:33:49.786Z,10
2022-12-23T02:34:49.792Z,9
2022-12-23T02:35:49.800Z,9
2022-12-23T02:36:49.817Z,9
2022-12-23T02:37:49.785Z,9
2022-12-23T02:38:49.783Z,9
2022-12-23T02:39:49.892Z,9
2022-12-23T02:40:49.797Z,9
2022-12-23T02:41:49.785Z,9
2022-12-23T02:42:49.789Z,9
2022-12-23T02:43:49.800Z,9
2022-12-23T02:44:49.856Z,8
2022-12-23T02:45:49.808Z,9
2022-12-23T02:46:49.779Z,10
2022-12-23T02:47:49.814Z,9
2022-12-23T02:48:49.788Z,9
2022-12-23T02:49:49.802Z,9
2022-12-23T02:50:49.788Z,9
2022-12-23T02:51:49.806Z,9
2022-12-23T02:52:49.806Z,9
2022-12-23T02:53:49.787Z,9
2022-12-23T02:54:49.792Z,9
2022-12-23T02:55:49.782Z,9
2022-12-23T02:56:49.782Z,9
2022-12-23T02:57:49.800Z,10
2022-12-23T02:58:49.783Z,10
2022-12-23T02:59:49.800Z,9
2022-12-23T03:00:49.792Z,10
2022-12-23T03:01:49.952Z,9
2022-12-23T03:02:50.056Z,9
2022-12-23T03:03:49.872Z,10
2022-12-23T03:04:49.805Z,10
2022-12-23T03:05:49.792Z,9
2022-12-23T03:06:49.792Z,10
2022-12-23T03:07:49.808Z,11
2022-12-23T03:09:49.804Z,11
2022-12-23T03:10:49.803Z,10
2022-12-23T03:11:49.793Z,10
2022-12-23T03:12:49.794Z,11
2022-12-23T03:13:49.804Z,10
2022-12-23T03:14:49.790Z,10
2022-12-23T03:15:49.839Z,10
2022-12-23T03:16:49.789Z,12
2022-12-23T03:17:49.788Z,12
2022-12-23T03:18:49.799Z,11
2022-12-23T03:19:49.795Z,12
2022-12-23T03:22:49.783Z,12
2022-12-23T03:23:55.186Z,11
2022-12-23T03:24:49.815Z,11
2022-12-23T03:25:49.798Z,11
2022-12-23T03:26:49.792Z,11
2022-12-23T03:27:49.793Z,12
2022-12-23T03:28:49.787Z,11
2022-12-23T03:29:49.787Z,12
2022-12-23T03:30:49.963Z,12
2022-12-23T03:31:49.799Z,11
2022-12-23T03:32:49.795Z,12
2022-12-23T03:33:49.795Z,11
2022-12-23T03:34:49.783Z,11
2022-12-23T03:35:49.793Z,12
2022-12-23T03:36:49.793Z,12
2022-12-23T03:37:49.797Z,12
2022-12-23T03:38:49.946Z,13
2022-12-23T03:39:49.799Z,13
2022-12-23T03:40:49.795Z,13
2022-12-23T03:42:49.801Z,14
2022-12-23T03:43:51.224Z,14
2022-12-23T03:45:19.315Z,14
2022-12-23T03:45:49.787Z,13
2022-12-23T03:46:49.873Z,14
2022-12-23T03:47:49.793Z,13
2022-12-23T03:48:49.877Z,13
2022-12-23T03:49:49.809Z,13
2022-12-23T03:50:49.820Z,14
2022-12-23T03:51:49.812Z,12
2022-12-23T03:52:49.783Z,13
2022-12-23T03:53:49.799Z,13
2022-12-23T03:54:49.793Z,12
2022-12-23T03:55:49.795Z,13
2022-12-23T03:56:49.815Z,14
2022-12-23T03:57:49.800Z,13
2022-12-23T03:58:49.798Z,13
2022-12-23T03:59:49.787Z,13
2022-12-23T04:00:49.797Z,14
2022-12-23T04:03:49.941Z,13
2022-12-23T04:04:49.803Z,13
2022-12-23T04:05:49.787Z,12
2022-12-23T04:06:49.804Z,13
2022-12-23T04:07:49.848Z,12
2022-12-23T04:08:49.806Z,12
2022-12-23T04:09:49.813Z,12
2022-12-23T04:10:49.812Z,11
2022-12-23T04:11:49.804Z,11
2022-12-23T04:12:49.797Z,11
2022-12-23T04:13:49.816Z,11
2022-12-23T04:14:49.790Z,12
2022-12-23T04:15:49.861Z,11
2022-12-23T04:16:49.805Z,12
2022-12-23T04:17:49.799Z,12
2022-12-23T04:18:49.798Z,12
2022-12-23T04:19:49.794Z,13
2022-12-23T04:20:50.050Z,13
2022-12-23T04:21:49.791Z,12
2022-12-23T04:23:49.792Z,13
2022-12-23T04:24:49.788Z,13
2022-12-23T04:25:49.809Z,13
2022-12-23T04:26:49.834Z,12
2022-12-23T04:27:49.795Z,13
2022-12-23T04:28:49.799Z,13
2022-12-23T04:29:49.793Z,13
2022-12-23T04:30:49.825Z,13
2022-12-23T04:31:49.809Z,14
2022-12-23T04:32:49.810Z,13
2022-12-23T04:33:49.794Z,14
2022-12-23T04:34:49.818Z,13
2022-12-23T04:35:49.815Z,12
2022-12-23T04:36:49.790Z,13
2022-12-23T04:37:49.798Z,13
2022-12-23T04:38:49.796Z,14
2022-12-23T04:39:49.801Z,13
2022-12-23T04:40:49.819Z,12
2022-12-23T04:41:49.800Z,13
2022-12-23T04:42:49.793Z,13
2022-12-23T04:43:53.038Z,14
2022-12-23T04:44:49.809Z,13
2022-12-23T04:45:49.801Z,13
2022-12-23T04:47:49.804Z,13
2022-12-23T04:48:49.815Z,13
2022-12-23T04:49:49.833Z,14
2022-12-23T04:50:49.823Z,14
2022-12-23T04:51:49.790Z,14
2022-12-23T04:52:49.802Z,14
2022-12-23T04:53:49.795Z,13
2022-12-23T04:55:49.797Z,13
2022-12-23T04:56:49.797Z,13
2022-12-23T04:57:49.799Z,13
2022-12-23T04:58:49.805Z,13
2022-12-23T04:59:49.813Z,14
2022-12-23T05:00:49.917Z,14
2022-12-23T05:01:50.003Z,13
2022-12-23T05:02:49.929Z,13
2022-12-23T05:03:49.795Z,13
2022-12-23T05:04:49.827Z,13
2022-12-23T05:05:49.804Z,13
2022-12-23T05:06:49.795Z,13
2022-12-23T05:08:49.971Z,13
2022-12-23T05:09:49.799Z,13
2022-12-23T05:10:49.826Z,13
2022-12-23T05:11:49.830Z,12
2022-12-23T05:12:49.805Z,12
2022-12-23T05:13:49.807Z,12
2022-12-23T05:14:49.797Z,12
2022-12-23T05:16:50.029Z,12
2022-12-23T05:17:49.801Z,12
2022-12-23T05:18:49.795Z,11
2022-12-23T05:19:49.799Z,12
2022-12-23T05:20:49.793Z,11
2022-12-23T05:21:49.824Z,11
2022-12-23T05:22:49.802Z,11
2022-12-23T05:23:49.818Z,12
2022-12-23T05:24:49.799Z,12
2022-12-23T05:25:49.796Z,11
2022-12-23T05:26:54.220Z,11
2022-12-23T05:27:49.801Z,11
2022-12-23T05:28:49.798Z,11
2022-12-23T05:29:49.804Z,11
2022-12-23T05:30:49.792Z,11
2022-12-23T05:31:49.964Z,10
2022-12-23T05:32:49.799Z,11
2022-12-23T05:33:50.008Z,10
2022-12-23T05:34:49.805Z,11
2022-12-23T05:35:49.802Z,9
2022-12-23T05:37:49.825Z,10
2022-12-23T05:38:49.797Z,10
2022-12-23T05:39:49.815Z,11
2022-12-23T05:40:49.800Z,10
2022-12-23T05:41:49.796Z,11
2022-12-23T05:42:49.862Z,10
2022-12-23T05:43:49.799Z,10
2022-12-23T05:44:49.805Z,10
2022-12-23T05:45:49.868Z,10
2022-12-23T05:46:49.800Z,10
2022-12-23T05:47:49.797Z,10
2022-12-23T05:48:49.804Z,10
2022-12-23T05:49:49.810Z,9
2022-12-23T05:50:49.819Z,9
2022-12-23T05:51:49.820Z,9
2022-12-23T05:52:49.800Z,10
2022-12-23T05:53:49.801Z,9
2022-12-23T05:54:49.810Z,10
2022-12-23T05:56:49.804Z,10
2022-12-23T05:57:49.801Z,9
2022-12-23T05:58:49.806Z,9
2022-12-23T05:59:49.808Z,10
2022-12-23T06:00:49.805Z,10
2022-12-23T06:01:49.935Z,10
2022-12-23T06:02:53.771Z,11
2022-12-23T06:03:49.921Z,11
2022-12-23T06:04:49.797Z,11
2022-12-23T06:06:49.795Z,11
2022-12-23T06:07:49.810Z,12
2022-12-23T06:08:53.213Z,13
2022-12-23T06:09:49.811Z,12
2022-12-23T06:10:49.802Z,13
2022-12-23T06:11:49.823Z,13
2022-12-23T06:12:49.812Z,13
2022-12-23T06:13:49.906Z,12
2022-12-23T06:14:49.802Z,12
2022-12-23T06:17:49.809Z,12
2022-12-23T06:18:49.842Z,11
2022-12-23T06:19:49.807Z,11
2022-12-23T06:20:49.849Z,10
2022-12-23T06:21:49.797Z,10
2022-12-23T06:22:49.801Z,11
2022-12-23T06:23:49.806Z,11
2022-12-23T06:24:49.808Z,10
2022-12-23T06:25:49.971Z,10
2022-12-23T06:26:56.574Z,10
2022-12-23T06:27:49.814Z,11
2022-12-23T06:28:49.835Z,11
2022-12-23T06:29:49.812Z,11
2022-12-23T06:30:49.828Z,11
2022-12-23T06:31:50.455Z,11
2022-12-23T06:32:49.868Z,11
2022-12-23T06:33:49.824Z,10
2022-12-23T06:34:49.864Z,11
2022-12-23T06:35:49.802Z,10
2022-12-23T06:36:49.825Z,10
2022-12-23T06:37:49.812Z,9
2022-12-23T06:38:49.809Z,10
2022-12-23T06:39:49.798Z,10
2022-12-23T06:40:49.807Z,10
2022-12-23T06:41:49.805Z,9
2022-12-23T06:42:49.828Z,10
2022-12-23T06:43:54.033Z,10
2022-12-23T06:44:49.849Z,10
2022-12-23T06:45:49.889Z,10
2022-12-23T06:46:49.891Z,11
2022-12-23T06:47:49.809Z,11
2022-12-23T06:49:49.809Z,12
2022-12-23T06:50:49.813Z,12
2022-12-23T06:51:49.807Z,12
2022-12-23T06:52:49.821Z,12
2022-12-23T06:53:49.837Z,12
2022-12-23T06:54:49.805Z,13
2022-12-23T06:55:49.808Z,12
2022-12-23T06:56:49.823Z,13
2022-12-23T06:57:49.816Z,13
2022-12-23T06:58:49.814Z,14
2022-12-23T06:59:49.809Z,13
2022-12-23T07:00:49.918Z,14
2022-12-23T07:01:50.024Z,14
2022-12-23T07:02:50.034Z,14
2022-12-23T07:03:49.805Z,14
2022-12-23T07:04:49.806Z,15
2022-12-23T07:05:49.813Z,14
2022-12-23T07:06:49.808Z,15
2022-12-23T07:07:49.810Z,16
2022-12-23T07:08:49.806Z,17
2022-12-23T07:10:49.802Z,16
2022-12-23T07:11:49.806Z,16
2022-12-23T07:12:51.079Z,17
2022-12-23T07:13:49.825Z,17
2022-12-23T07:14:49.814Z,15
2022-12-23T07:15:49.838Z,15
2022-12-23T07:16:50.284Z,15
2022-12-23T07:17:49.803Z,16
2022-12-23T07:18:49.806Z,15
2022-12-23T07:19:49.837Z,15
2022-12-23T07:20:49.820Z,16
2022-12-23T07:21:49.814Z,16
2022-12-23T07:22:49.810Z,15
2022-12-23T07:23:49.835Z,15
2022-12-23T07:24:49.802Z,15
2022-12-23T07:25:49.813Z,14
2022-12-23T07:26:49.809Z,16
2022-12-23T07:27:49.803Z,15
2022-12-23T07:28:49.817Z,15
2022-12-23T07:29:49.802Z,16
2022-12-23T07:31:49.896Z,16
2022-12-23T07:32:49.817Z,16
2022-12-23T07:33:49.813Z,17
2022-12-23T07:34:49.820Z,17
2022-12-23T07:35:49.805Z,16
2022-12-23T07:36:49.808Z,17
2022-12-23T07:37:49.807Z,17
2022-12-23T07:38:49.813Z,17
2022-12-23T07:39:49.813Z,17
2022-12-23T07:40:49.813Z,17
2022-12-23T07:41:55.564Z,17
2022-12-23T07:42:49.808Z,17
2022-12-23T07:43:49.871Z,16
2022-12-23T07:44:49.832Z,16
2022-12-23T07:45:55.600Z,16
2022-12-23T07:46:49.840Z,17
2022-12-23T07:47:49.812Z,16
2022-12-23T07:48:49.857Z,16
2022-12-23T07:50:49.836Z,16
2022-12-23T07:51:49.834Z,16
2022-12-23T07:52:49.799Z,16
2022-12-23T07:53:49.818Z,16
2022-12-23T07:54:49.821Z,15
2022-12-23T07:55:56.138Z,16
2022-12-23T07:56:49.818Z,16
2022-12-23T07:58:49.825Z,15
2022-12-23T07:59:49.830Z,14
2022-12-23T08:00:49.804Z,14
2022-12-23T08:01:49.922Z,16
2022-12-23T08:02:50.040Z,16
2022-12-23T08:03:49.880Z,16
2022-12-23T08:04:49.926Z,15
2022-12-23T08:05:49.805Z,15
2022-12-23T08:06:49.822Z,16
2022-12-23T08:07:49.832Z,15
2022-12-23T08:08:49.815Z,16
2022-12-23T08:09:49.830Z,15
2022-12-23T08:10:49.804Z,16
2022-12-23T08:11:49.808Z,15
2022-12-23T08:12:49.815Z,15
2022-12-23T08:13:49.820Z,15
2022-12-23T08:14:49.815Z,14
2022-12-23T08:15:49.807Z,14
2022-12-23T08:16:49.873Z,15
2022-12-23T08:17:50.236Z,15
2022-12-23T08:18:49.824Z,14
2022-12-23T08:19:49.847Z,14
2022-12-23T08:20:49.812Z,15
2022-12-23T08:21:49.843Z,15
2022-12-23T08:22:49.818Z,15
2022-12-23T08:23:49.823Z,14
2022-12-23T08:24:49.823Z,14
2022-12-23T08:25:49.825Z,15
2022-12-23T08:26:49.835Z,15
2022-12-23T08:27:49.831Z,14
2022-12-23T08:28:49.830Z,16
2022-12-23T08:29:49.821Z,16
2022-12-23T08:30:49.914Z,15
2022-12-23T08:31:49.823Z,15
2022-12-23T08:32:49.840Z,14
2022-12-23T08:33:49.814Z,14
2022-12-23T08:34:49.828Z,14
2022-12-23T08:35:49.827Z,14
2022-12-23T08:36:49.818Z,13
2022-12-23T08:37:49.817Z,15
2022-12-23T08:38:49.810Z,13
2022-12-23T08:40:49.813Z,13
2022-12-23T08:41:49.820Z,13
2022-12-23T08:42:49.820Z,13
2022-12-23T08:43:49.820Z,13
2022-12-23T08:44:49.821Z,12
2022-12-23T08:45:49.877Z,13
2022-12-23T08:47:49.891Z,12
2022-12-23T08:48:50.218Z,13
2022-12-23T08:49:49.818Z,11
2022-12-23T08:50:49.821Z,12
2022-12-23T08:51:49.835Z,12
2022-12-23T08:52:49.833Z,12
2022-12-23T08:53:53.551Z,12
2022-12-23T08:54:49.830Z,12
2022-12-23T08:55:49.827Z,13
2022-12-23T08:56:49.819Z,13
2022-12-23T08:57:49.818Z,13
2022-12-23T08:58:49.814Z,12
2022-12-23T08:59:49.815Z,12
2022-12-23T09:00:49.819Z,12
2022-12-23T09:01:49.927Z,12
2022-12-23T09:02:49.928Z,13
2022-12-23T09:04:49.824Z,12
2022-12-23T09:05:49.840Z,12
2022-12-23T09:06:49.824Z,12
2022-12-23T09:07:49.827Z,12
2022-12-23T09:08:49.814Z,12
2022-12-23T09:09:49.822Z,11
2022-12-23T09:10:49.825Z,11
2022-12-23T09:11:49.812Z,12
2022-12-23T09:12:49.841Z,12
2022-12-23T09:13:49.822Z,12
2022-12-23T09:14:49.821Z,11
2022-12-23T09:15:49.913Z,12
2022-12-23T09:16:49.825Z,12
2022-12-23T09:17:49.822Z,12
2022-12-23T09:18:50.210Z,12
2022-12-23T09:19:52.949Z,12
2022-12-23T09:20:49.898Z,12
2022-12-23T09:21:49.825Z,13
2022-12-23T09:22:49.819Z,11
2022-12-23T09:23:49.822Z,12
2022-12-23T09:25:49.818Z,11
2022-12-23T09:26:49.838Z,12
2022-12-23T09:27:49.837Z,12
2022-12-23T09:28:49.835Z,12
2022-12-23T09:29:49.826Z,13
2022-12-23T09:31:49.901Z,12
2022-12-23T09:32:49.816Z,13
2022-12-23T09:33:49.836Z,12
2022-12-23T09:34:49.858Z,12
2022-12-23T09:35:49.829Z,12
2022-12-23T09:36:55.128Z,12
2022-12-23T09:37:49.833Z,12
2022-12-23T09:38:49.825Z,13
2022-12-23T09:39:49.821Z,12
2022-12-23T09:40:49.828Z,13
2022-12-23T09:41:49.861Z,13
2022-12-23T09:42:49.826Z,12
2022-12-23T09:44:49.846Z,12
2022-12-23T09:45:49.825Z,12
2022-12-23T09:46:49.988Z,11
2022-12-23T09:47:49.820Z,13
2022-12-23T09:48:49.843Z,12
2022-12-23T09:49:49.873Z,12
2022-12-23T09:50:49.885Z,12
2022-12-23T09:52:49.823Z,12
2022-12-23T09:53:49.854Z,13
2022-12-23T09:54:49.840Z,13
2022-12-23T09:55:49.833Z,13
2022-12-23T09:56:49.838Z,13
2022-12-23T09:57:49.844Z,13
2022-12-23T09:59:49.828Z,13
2022-12-23T10:00:49.844Z,14
2022-12-23T10:01:49.933Z,13
2022-12-23T10:02:50.164Z,13
2022-12-23T10:03:50.125Z,13
2022-12-23T10:05:49.825Z,14
2022-12-23T10:06:49.831Z,13
2022-12-23T10:07:49.851Z,14
2022-12-23T10:08:49.834Z,14
2022-12-23T10:09:49.919Z,14
2022-12-23T10:10:49.831Z,14
2022-12-23T10:11:49.837Z,14
2022-12-23T10:13:49.845Z,14
2022-12-23T10:14:49.847Z,13
2022-12-23T10:15:49.900Z,13
2022-12-23T10:16:49.827Z,14
2022-12-23T10:17:49.833Z,14
2022-12-23T10:18:49.825Z,13
2022-12-23T10:19:49.827Z,13
2022-12-23T10:20:49.824Z,13
2022-12-23T10:21:49.876Z,13
2022-12-23T10:22:49.830Z,13
2022-12-23T10:23:49.839Z,13
2022-12-23T10:24:49.821Z,13
2022-12-23T10:25:49.828Z,13
2022-12-23T10:26:49.834Z,13
2022-12-23T10:27:49.823Z,14
2022-12-23T10:28:49.846Z,13
2022-12-23T10:29:49.846Z,13
2022-12-23T10:31:49.853Z,13
2022-12-23T10:32:49.897Z,13
2022-12-23T10:33:49.845Z,12
2022-12-23T10:34:49.839Z,13
2022-12-23T10:35:49.861Z,12
2022-12-23T10:36:50.017Z,12
2022-12-23T10:37:49.839Z,12
2022-12-23T10:38:49.837Z,12
2022-12-23T10:39:49.836Z,12
2022-12-23T10:40:49.841Z,11
2022-12-23T10:41:49.841Z,12
2022-12-23T10:42:49.849Z,12
2022-12-23T10:43:49.828Z,11
2022-12-23T10:44:49.837Z,11
2022-12-23T10:45:49.825Z,12
2022-12-23T10:46:49.890Z,11
2022-12-23T10:47:49.841Z,11
2022-12-23T10:48:49.826Z,11
2022-12-23T10:49:49.833Z,11
2022-12-23T10:50:49.835Z,11
2022-12-23T10:51:49.869Z,11
2022-12-23T10:52:49.878Z,11
2022-12-23T10:53:49.844Z,10
2022-12-23T10:54:49.829Z,11
2022-12-23T10:55:49.826Z,10
2022-12-23T10:56:49.856Z,11
2022-12-23T10:58:49.838Z,10
2022-12-23T10:59:49.833Z,11
2022-12-23T11:00:49.899Z,10
2022-12-23T11:01:50.052Z,10
2022-12-23T11:02:49.978Z,10
2022-12-23T11:03:49.991Z,9
2022-12-23T11:04:49.827Z,10
2022-12-23T11:05:49.825Z,10
2022-12-23T11:06:55.816Z,10
2022-12-23T11:07:49.850Z,11
2022-12-23T11:08:49.849Z,10
2022-12-23T11:09:49.865Z,10
2022-12-23T11:10:49.917Z,11
2022-12-23T11:11:49.840Z,11
2022-12-23T11:12:49.871Z,10
2022-12-23T11:13:49.826Z,10
2022-12-23T11:14:49.839Z,11
2022-12-23T11:15:49.950Z,10
2022-12-23T11:16:49.997Z,11
2022-12-23T11:17:49.868Z,11
2022-12-23T11:19:49.832Z,11
2022-12-23T11:20:49.913Z,10
2022-12-23T11:21:49.837Z,12
2022-12-23T11:22:49.848Z,11
2022-12-23T11:23:49.867Z,11
2022-12-23T11:25:49.891Z,11
2022-12-23T11:26:49.884Z,11
2022-12-23T11:27:49.848Z,11
2022-12-23T11:28:49.855Z,11
2022-12-23T11:29:49.851Z,11
2022-12-23T11:30:55.419Z,10
2022-12-23T11:31:50.004Z,11
2022-12-23T11:32:49.859Z,10
2022-12-23T11:33:49.836Z,10
2022-12-23T11:34:49.835Z,11
2022-12-23T11:35:49.902Z,10
2022-12-23T11:36:53.091Z,10
2022-12-23T11:37:49.939Z,10
2022-12-23T11:38:49.847Z,10
2022-12-23T11:40:49.838Z,10
2022-12-23T11:41:49.828Z,10
2022-12-23T11:42:53.594Z,10
2022-12-23T11:43:49.843Z,10
2022-12-23T11:44:49.839Z,10
2022-12-23T11:45:49.932Z,11
2022-12-23T11:46:49.836Z,10
2022-12-23T11:49:49.875Z,11
2022-12-23T11:50:49.878Z,11
2022-12-23T11:51:49.933Z,10
2022-12-23T11:52:49.857Z,11
2022-12-23T11:53:49.843Z,11
2022-12-23T11:54:54.404Z,10
2022-12-23T11:55:50.217Z,11
2022-12-23T11:56:49.941Z,11
2022-12-23T11:57:49.901Z,11
2022-12-23T11:58:49.847Z,11
2022-12-23T11:59:49.844Z,10
2022-12-23T12:00:55.332Z,11
2022-12-23T12:01:49.859Z,11
2022-12-23T12:02:49.935Z,11
2022-12-23T12:03:49.988Z,10
2022-12-23T12:04:49.884Z,10
2022-12-23T12:05:49.856Z,11
2022-12-23T12:08:49.857Z,11
2022-12-23T12:09:49.840Z,12
2022-12-23T12:10:49.842Z,11
2022-12-23T12:11:49.848Z,10
2022-12-23T12:12:52.997Z,11
2022-12-23T12:13:49.849Z,12
2022-12-23T12:14:49.827Z,12
2022-12-23T12:15:49.837Z,12
2022-12-23T12:16:49.969Z,12
2022-12-23T12:17:49.843Z,12
2022-12-23T12:18:55.127Z,12
2022-12-23T12:19:49.864Z,11
2022-12-23T12:20:49.843Z,11
2022-12-23T12:22:49.988Z,10
2022-12-23T12:23:58.733Z,9
2022-12-23T12:24:49.840Z,10
2022-12-23T12:25:49.865Z,10
2022-12-23T12:26:49.827Z,9
2022-12-23T12:27:49.845Z,10
2022-12-23T12:29:49.855Z,10
2022-12-23T12:30:49.898Z,10
2022-12-23T12:31:49.839Z,10
2022-12-23T12:32:49.861Z,11
2022-12-23T12:33:49.834Z,10
2022-12-23T12:34:49.877Z,10
2022-12-23T12:35:53.639Z,9
2022-12-23T12:36:49.936Z,10
2022-12-23T12:37:49.890Z,10
2022-12-23T12:38:49.837Z,10
2022-12-23T12:39:49.859Z,10
2022-12-23T12:40:49.840Z,10
2022-12-23T12:41:49.839Z,10
2022-12-23T12:42:49.835Z,10
2022-12-23T12:43:49.839Z,10
2022-12-23T12:44:49.839Z,9
2022-12-23T12:45:49.920Z,9
2022-12-23T12:46:49.839Z,9
2022-12-23T12:47:55.786Z,9
2022-12-23T12:48:49.859Z,9
2022-12-23T12:49:49.849Z,8
2022-12-23T12:50:49.861Z,7
2022-12-23T12:52:49.837Z,8
2022-12-23T12:53:49.875Z,8
2022-12-23T12:54:49.838Z,8
2022-12-23T12:55:49.843Z,7
2022-12-23T12:56:49.907Z,8
2022-12-23T12:57:49.864Z,8
2022-12-23T12:58:49.834Z,7
2022-12-23T12:59:49.863Z,8
2022-12-23T13:00:49.861Z,8
2022-12-23T13:01:49.891Z,7
2022-12-23T13:02:49.851Z,8
2022-12-23T13:03:49.863Z,7
2022-12-23T13:04:49.865Z,7
2022-12-23T13:05:53.901Z,7
2022-12-23T13:06:49.859Z,7
2022-12-23T13:07:49.843Z,7
2022-12-23T13:08:50.185Z,7
2022-12-23T13:09:49.885Z,7
2022-12-23T13:10:49.845Z,7
2022-12-23T13:11:49.834Z,7
2022-12-23T13:13:49.841Z,8
2022-12-23T13:14:49.861Z,7
2022-12-23T13:15:49.835Z,7
2022-12-23T13:16:49.942Z,7
2022-12-23T13:17:49.915Z,8
2022-12-23T13:18:49.849Z,7
2022-12-23T13:19:49.835Z,7
2022-12-23T13:20:49.844Z,7
2022-12-23T13:22:49.914Z,7
2022-12-23T13:23:49.853Z,7
2022-12-23T13:24:49.845Z,7
2022-12-23T13:25:49.845Z,7
2022-12-23T13:26:49.840Z,7
2022-12-23T13:27:49.947Z,7
2022-12-23T13:28:49.843Z,6
2022-12-23T13:29:54.537Z,7
2022-12-23T13:30:49.927Z,7
2022-12-23T13:31:49.850Z,6
2022-12-23T13:32:49.845Z,7
2022-12-23T13:34:49.841Z,6
2022-12-23T13:35:49.849Z,6
2022-12-23T13:36:49.977Z,5
2022-12-23T13:37:49.845Z,5
2022-12-23T13:38:49.838Z,5
2022-12-23T13:39:49.841Z,5
2022-12-23T13:40:49.858Z,4
2022-12-23T13:41:49.842Z,4
2022-12-23T13:42:49.866Z,4
2022-12-23T13:43:49.842Z,4
2022-12-23T13:44:49.839Z,4
2022-12-23T13:45:49.900Z,4
2022-12-23T13:46:49.967Z,4
2022-12-23T13:47:49.840Z,4
2022-12-23T13:48:49.912Z,4
2022-12-23T13:49:49.837Z,5
2022-12-23T13:50:49.857Z,4
2022-12-23T13:51:49.853Z,4
2022-12-23T13:53:49.873Z,4
2022-12-23T13:54:49.875Z,4
2022-12-23T13:55:49.855Z,4
2022-12-23T13:56:49.861Z,4
2022-12-23T13:57:49.846Z,4
2022-12-23T13:58:49.863Z,4
2022-12-23T13:59:49.851Z,4
2022-12-23T14:00:49.835Z,4
2022-12-23T14:01:50.011Z,4
2022-12-23T14:02:50.047Z,4
2022-12-23T14:03:49.840Z,4
2022-12-23T14:04:49.847Z,4
2022-12-23T14:05:49.846Z,4
2022-12-23T14:06:49.849Z,4
2022-12-23T14:07:49.862Z,4
2022-12-23T14:08:49.849Z,5
2022-12-23T14:10:49.848Z,5
2022-12-23T14:12:49.854Z,5
2022-12-23T14:13:49.856Z,5
2022-12-23T14:14:49.843Z,5
2022-12-23T14:15:49.992Z,5
2022-12-23T14:16:49.890Z,5
2022-12-23T14:17:49.853Z,5
2022-12-23T14:18:49.850Z,5
2022-12-23T14:19:49.878Z,5
2022-12-23T14:20:49.851Z,5
2022-12-23T14:21:49.855Z,5
2022-12-23T14:22:49.841Z,4
2022-12-23T14:23:49.875Z,5
2022-12-23T14:24:49.865Z,4
2022-12-23T14:26:49.859Z,4
2022-12-23T14:27:49.861Z,4
2022-12-23T14:28:49.856Z,5
2022-12-23T14:29:49.869Z,5
2022-12-23T14:30:49.961Z,5
2022-12-23T14:31:49.848Z,5
2022-12-23T14:32:49.898Z,5
2022-12-23T14:33:49.863Z,5
2022-12-23T14:34:49.849Z,5
2022-12-23T14:35:49.854Z,5
2022-12-23T14:36:49.937Z,5
2022-12-23T14:37:49.886Z,5
2022-12-23T14:38:49.865Z,5
2022-12-23T14:39:49.856Z,5
2022-12-23T14:40:49.850Z,5
2022-12-23T14:41:49.849Z,5
2022-12-23T14:42:49.850Z,6
2022-12-23T14:43:49.851Z,5
2022-12-23T14:44:49.939Z,5
2022-12-23T14:45:49.842Z,5
2022-12-23T14:47:49.857Z,6
2022-12-23T14:48:50.019Z,5
2022-12-23T14:49:49.878Z,5
2022-12-23T14:50:49.840Z,6
2022-12-23T14:51:49.849Z,6
2022-12-23T14:52:49.856Z,6
2022-12-23T14:53:49.848Z,6
2022-12-23T14:55:20.744Z,6
2022-12-23T14:55:49.847Z,6
2022-12-23T14:56:49.867Z,5
2022-12-23T14:57:49.847Z,5
2022-12-23T14:58:49.850Z,5
2022-12-23T14:59:49.915Z,5
2022-12-23T15:00:49.887Z,5
2022-12-23T15:01:49.924Z,5
2022-12-23T15:02:49.928Z,5
2022-12-23T15:03:50.283Z,4
2022-12-23T15:04:49.857Z,5
2022-12-23T15:05:49.848Z,4
2022-12-23T15:07:49.852Z,4
2022-12-23T15:08:49.854Z,5
2022-12-23T15:09:51.755Z,5
2022-12-23T15:10:49.880Z,5
2022-12-23T15:11:49.848Z,5
2022-12-23T15:14:49.856Z,4
2022-12-23T15:15:49.873Z,4
2022-12-23T15:16:49.980Z,4
2022-12-23T15:17:49.880Z,4
2022-12-23T15:18:49.848Z,4
2022-12-23T15:19:49.863Z,4
2022-12-23T15:20:49.866Z,4
2022-12-23T15:21:58.187Z,4
2022-12-23T15:22:49.868Z,4
2022-12-23T15:23:50.168Z,4
2022-12-23T15:24:49.866Z,4
2022-12-23T15:25:49.852Z,4
2022-12-23T15:27:09.754Z,4
2022-12-23T15:28:49.863Z,3
2022-12-23T15:29:49.859Z,3
2022-12-23T15:30:50.068Z,3
2022-12-23T15:31:49.950Z,3
2022-12-23T15:32:49.851Z,4
2022-12-23T15:34:02.923Z,3